createdAt,value
2022-09-22T00:01:33.377Z,100245.72
2022-09-22T00:04:05.925Z,100248.88
2022-09-22T00:06:36.512Z,100248.03
2022-09-22T00:09:07.532Z,100251.44
2022-09-22T00:11:37.575Z,100249.00
2022-09-22T00:14:08.203Z,100247.50
2022-09-22T00:16:39.062Z,100240.97
2022-09-22T00:19:07.666Z,100236.63
2022-09-22T00:21:36.161Z,100243.47
2022-09-22T00:24:08.057Z,100235.84
2022-09-22T00:26:37.986Z,100234.25
2022-09-22T00:29:09.725Z,100232.81
2022-09-22T00:31:38.984Z,100228.53
2022-09-22T00:34:08.680Z,100218.91
2022-09-22T00:36:36.657Z,100229.00
2022-09-22T00:39:06.052Z,100218.91
2022-09-22T00:41:36.258Z,100209.88
2022-09-22T00:44:42.694Z,100216.09
2022-09-22T00:47:20.499Z,100210.41
2022-09-22T00:49:54.690Z,100207.13
2022-09-22T00:52:26.753Z,100209.84
2022-09-22T00:55:00.495Z,100206.56
2022-09-22T00:57:32.498Z,100214.00
2022-09-22T01:00:02.561Z,100207.91
2022-09-22T01:02:30.645Z,100210.97
2022-09-22T01:04:58.856Z,100215.84
2022-09-22T01:07:31.083Z,100211.31
2022-09-22T01:10:01.155Z,100209.25
2022-09-22T01:12:31.984Z,100208.22
2022-09-22T01:15:10.275Z,100207.28
2022-09-22T01:17:48.314Z,100207.16
2022-09-22T01:20:39.340Z,100204.47
2022-09-22T01:23:54.363Z,100211.03
2022-09-22T01:27:01.681Z,100206.06
2022-09-22T01:29:58.278Z,100211.44
2022-09-22T01:32:31.308Z,100205.34
2022-09-22T01:35:07.785Z,100195.22
2022-09-22T01:37:45.371Z,100210.31
2022-09-22T01:40:18.868Z,100203.28
2022-09-22T01:42:51.148Z,100214.97
2022-09-22T01:45:23.748Z,100207.41
2022-09-22T01:47:56.098Z,100209.72
2022-09-22T01:50:28.884Z,100206.84
2022-09-22T01:53:02.235Z,100199.19
2022-09-22T01:55:34.835Z,100198.75
2022-09-22T01:58:06.648Z,100207.41
2022-09-22T02:00:36.782Z,100206.00
2022-09-22T02:03:10.113Z,100203.69
2022-09-22T02:05:44.027Z,100204.72
2022-09-22T02:08:17.012Z,100195.66
2022-09-22T02:10:48.641Z,100190.41
2022-09-22T02:13:16.592Z,100186.72
2022-09-22T02:16:02.986Z,100185.97
2022-09-22T02:18:36.366Z,100186.72
2022-09-22T02:21:05.730Z,100184.03
2022-09-22T02:23:33.755Z,100182.25
2022-09-22T02:26:02.947Z,100175.50
2022-09-22T02:28:32.740Z,100169.91
2022-09-22T02:31:19.499Z,100184.16
2022-09-22T02:33:51.784Z,100165.75
2022-09-22T02:36:47.875Z,100162.47
2022-09-22T02:39:21.185Z,100163.00
2022-09-22T02:42:09.891Z,100159.41
2022-09-22T02:44:47.880Z,100164.41
2022-09-22T02:47:20.339Z,100164.59
2022-09-22T02:49:51.623Z,100165.44
2022-09-22T02:52:21.807Z,100154.31
2022-09-22T02:54:49.744Z,100152.94
2022-09-22T02:57:17.766Z,100147.56
2022-09-22T02:59:45.776Z,100157.75
2022-09-22T03:02:13.859Z,100146.53
2022-09-22T03:04:41.805Z,100159.28
2022-09-22T03:07:11.150Z,100159.03
2022-09-22T03:09:39.077Z,100161.16
2022-09-22T03:12:07.625Z,100159.91
2022-09-22T03:14:35.518Z,100151.91
2022-09-22T03:17:03.445Z,100165.34
2022-09-22T03:19:31.886Z,100146.28
2022-09-22T03:21:59.765Z,100160.06
2022-09-22T03:24:29.631Z,100151.16
2022-09-22T03:26:57.472Z,100155.44
2022-09-22T03:29:25.395Z,100153.03
2022-09-22T03:31:53.308Z,100150.59
2022-09-22T03:34:21.280Z,100144.69
2022-09-22T03:36:50.008Z,100147.59
2022-09-22T03:39:17.961Z,100146.75
2022-09-22T03:41:47.127Z,100141.69
2022-09-22T03:44:15.009Z,100143.34
2022-09-22T03:46:42.998Z,100143.34
2022-09-22T03:49:11.134Z,100147.66
2022-09-22T03:51:38.989Z,100153.50
2022-09-22T03:54:07.093Z,100133.75
2022-09-22T03:56:34.947Z,100156.66
2022-09-22T03:59:04.544Z,100154.03
2022-09-22T04:01:33.899Z,100158.22
2022-09-22T04:04:02.045Z,100150.75
2022-09-22T04:06:29.932Z,100141.56
2022-09-22T04:08:57.845Z,100147.47
2022-09-22T04:11:25.837Z,100144.13
2022-09-22T04:13:54.193Z,100147.91
2022-09-22T04:16:23.520Z,100151.97
2022-09-22T04:18:51.495Z,100143.44
2022-09-22T04:21:19.428Z,100152.28
2022-09-22T04:23:47.364Z,100146.44
2022-09-22T04:26:15.451Z,100148.00
2022-09-22T04:28:43.446Z,100154.69
2022-09-22T04:31:11.361Z,100154.91
2022-09-22T04:33:40.789Z,100151.56
2022-09-22T04:36:08.969Z,100153.13
2022-09-22T04:38:37.168Z,100167.00
2022-09-22T04:41:05.310Z,100159.19
2022-09-22T04:43:33.222Z,100162.31
2022-09-22T04:46:01.544Z,100167.16
2022-09-22T04:48:29.524Z,100164.03
2022-09-22T04:50:58.652Z,100172.56
2022-09-22T04:53:26.708Z,100175.44
2022-09-22T04:55:54.565Z,100167.38
2022-09-22T04:58:22.860Z,100169.00
2022-09-22T05:00:51.039Z,100168.22
2022-09-22T05:03:22.196Z,100174.78
2022-09-22T05:05:50.414Z,100165.53
2022-09-22T05:08:19.731Z,100171.50
2022-09-22T05:10:47.699Z,100167.31
2022-09-22T05:13:15.600Z,100169.78
2022-09-22T05:15:43.485Z,100166.66
2022-09-22T05:18:11.672Z,100174.50
2022-09-22T05:20:39.644Z,100180.56
2022-09-22T05:23:07.871Z,100178.84
2022-09-22T05:25:37.052Z,100180.34
2022-09-22T05:28:04.836Z,100191.31
2022-09-22T05:30:32.639Z,100180.41
2022-09-22T05:33:00.424Z,100190.16
2022-09-22T05:35:31.771Z,100186.59
2022-09-22T05:38:02.332Z,100176.22
2022-09-22T05:40:31.034Z,100180.75
2022-09-22T05:43:00.304Z,100177.84
2022-09-22T05:45:28.127Z,100176.53
2022-09-22T05:47:55.916Z,100178.03
2022-09-22T05:50:24.211Z,100180.00
2022-09-22T05:52:52.103Z,100175.13
2022-09-22T05:55:20.029Z,100180.72
2022-09-22T05:57:47.899Z,100188.00
2022-09-22T06:00:17.351Z,100189.97
2022-09-22T06:02:45.721Z,100193.56
2022-09-22T06:05:16.011Z,100195.72
2022-09-22T06:07:45.968Z,100198.63
2022-09-22T06:10:13.824Z,100189.75
2022-09-22T06:12:41.769Z,100188.41
2022-09-22T06:15:10.346Z,100197.06
2022-09-22T06:17:39.695Z,100195.72
2022-09-22T06:20:08.468Z,100191.78
2022-09-22T06:22:36.404Z,100186.97
2022-09-22T06:25:04.781Z,100190.44
2022-09-22T06:27:32.614Z,100192.22
2022-09-22T06:30:00.521Z,100188.28
2022-09-22T06:32:28.466Z,100184.31
2022-09-22T06:35:02.440Z,100185.28
2022-09-22T06:37:30.330Z,100190.63
2022-09-22T06:39:58.113Z,100204.16
2022-09-22T06:42:26.457Z,100194.25
2022-09-22T06:44:54.641Z,100190.31
2022-09-22T06:47:22.481Z,100187.91
2022-09-22T06:49:50.383Z,100197.13
2022-09-22T06:52:19.614Z,100196.31
2022-09-22T06:54:50.560Z,100189.63
2022-09-22T06:57:19.776Z,100196.25
2022-09-22T06:59:48.350Z,100201.31
2022-09-22T07:02:16.283Z,100205.66
2022-09-22T07:04:44.245Z,100199.91
2022-09-22T07:07:12.228Z,100191.84
2022-09-22T07:09:41.354Z,100196.06
2022-09-22T07:12:09.228Z,100187.78
2022-09-22T07:14:37.029Z,100194.44
2022-09-22T07:17:04.893Z,100191.25
2022-09-22T07:19:36.224Z,100182.22
2022-09-22T07:22:04.228Z,100200.88
2022-09-22T07:24:32.059Z,100196.09
2022-09-22T07:27:06.951Z,100189.56
2022-09-22T07:29:34.865Z,100196.56
2022-09-22T07:32:03.860Z,100194.28
2022-09-22T07:34:31.919Z,100200.41
2022-09-22T07:37:00.459Z,100206.41
2022-09-22T07:39:28.274Z,100201.66
2022-09-22T07:41:56.049Z,100201.88
2022-09-22T07:44:44.641Z,100200.56
2022-09-22T07:47:12.944Z,100201.72
2022-09-22T07:49:40.726Z,100201.03
2022-09-22T07:52:09.955Z,100198.59
2022-09-22T07:54:39.721Z,100186.06
2022-09-22T07:57:09.569Z,100189.44
2022-09-22T07:59:39.647Z,100192.09
2022-09-22T08:02:08.130Z,100190.09
2022-09-22T08:04:35.956Z,100195.66
2022-09-22T08:07:04.047Z,100185.13
2022-09-22T08:09:33.533Z,100194.56
2022-09-22T08:12:02.231Z,100180.47
2022-09-22T08:14:30.364Z,100201.66
2022-09-22T08:16:59.553Z,100182.38
2022-09-22T08:19:27.319Z,100191.00
2022-09-22T08:21:55.109Z,100198.53
2022-09-22T08:24:24.059Z,100191.09
2022-09-22T08:26:54.177Z,100188.78
2022-09-22T08:29:22.088Z,100174.44
2022-09-22T08:31:51.304Z,100181.50
2022-09-22T08:34:21.735Z,100183.34
2022-09-22T08:36:49.782Z,100180.88
2022-09-22T08:39:18.909Z,100186.16
2022-09-22T08:41:59.554Z,100187.91
2022-09-22T08:44:32.830Z,100180.53
2022-09-22T08:47:02.217Z,100194.81
2022-09-22T08:49:57.086Z,100189.28
2022-09-22T08:52:31.022Z,100165.63
2022-09-22T08:55:00.234Z,100201.34
2022-09-22T08:57:59.848Z,100194.84
2022-09-22T09:00:33.251Z,100181.53
2022-09-22T09:03:17.680Z,100174.84
2022-09-22T09:05:55.824Z,100170.13
2022-09-22T09:08:50.769Z,100168.53
2022-09-22T09:11:32.152Z,100175.72
2022-09-22T09:14:13.583Z,100170.19
2022-09-22T09:16:49.755Z,100172.97
2022-09-22T09:19:21.215Z,100173.75
2022-09-22T09:21:53.198Z,100174.53
2022-09-22T09:27:23.051Z,100175.78
2022-09-22T09:30:02.035Z,100164.13
2022-09-22T09:32:38.620Z,100159.13
2022-09-22T09:35:13.432Z,100175.13
2022-09-22T09:37:44.196Z,100181.84
2022-09-22T09:40:15.818Z,100167.47
2022-09-22T09:42:47.086Z,100173.25
2022-09-22T09:45:17.373Z,100177.44
2022-09-22T09:48:02.667Z,100176.56
2022-09-22T09:50:32.116Z,100181.50
2022-09-22T09:53:01.824Z,100181.59
2022-09-22T09:55:29.646Z,100175.03
2022-09-22T09:58:08.347Z,100165.84
2022-09-22T10:00:52.347Z,100169.16
2022-09-22T10:03:26.183Z,100165.06
2022-09-22T10:06:00.172Z,100167.72
2022-09-22T10:08:32.118Z,100161.91
2022-09-22T10:11:01.885Z,100153.38
2022-09-22T10:13:32.277Z,100160.25
2022-09-22T10:16:19.537Z,100167.91
2022-09-22T10:18:48.477Z,100159.69
2022-09-22T10:21:18.078Z,100165.97
2022-09-22T10:23:48.813Z,100161.22
2022-09-22T10:26:20.221Z,100176.44
2022-09-22T10:29:08.885Z,100166.44
2022-09-22T10:31:38.272Z,100167.59
2022-09-22T10:34:07.849Z,100159.94
2022-09-22T10:36:44.727Z,100164.97
2022-09-22T10:39:18.732Z,100156.44
2022-09-22T10:41:49.751Z,100154.41
2022-09-22T10:44:37.991Z,100156.91
2022-09-22T10:47:27.437Z,100147.69
2022-09-22T10:50:22.790Z,100149.53
2022-09-22T10:52:56.803Z,100143.59
2022-09-22T10:55:31.390Z,100138.72
2022-09-22T10:58:27.930Z,100144.94
2022-09-22T11:01:14.239Z,100134.88
2022-09-22T11:04:03.356Z,100131.50
2022-09-22T11:07:06.266Z,100136.03
2022-09-22T11:09:59.463Z,100134.63
2022-09-22T11:12:40.952Z,100134.56
2022-09-22T11:15:39.852Z,100130.41
2022-09-22T11:18:27.992Z,100128.78
2022-09-22T11:21:07.811Z,100126.41
2022-09-22T11:24:00.924Z,100132.63
2022-09-22T11:26:44.673Z,100141.47
2022-09-22T11:29:57.397Z,100131.22
2022-09-22T11:32:40.560Z,100136.09
2022-09-22T11:35:41.746Z,100134.25
2022-09-22T11:38:28.548Z,100140.34
2022-09-22T11:41:15.600Z,100143.63
2022-09-22T11:43:59.160Z,100151.59
2022-09-22T11:46:38.978Z,100151.28
2022-09-22T11:49:17.993Z,100144.47
2022-09-22T11:52:01.839Z,100144.50
2022-09-22T11:54:47.581Z,100153.69
2022-09-22T11:57:19.220Z,100147.91
2022-09-22T11:59:54.458Z,100147.19
2022-09-22T12:02:27.478Z,100147.38
2022-09-22T12:05:00.023Z,100142.72
2022-09-22T12:07:32.660Z,100142.63
2022-09-22T12:10:03.939Z,100135.00
2022-09-22T12:12:33.268Z,100132.41
2022-09-22T12:15:08.636Z,100145.72
2022-09-22T12:17:44.481Z,100126.97
2022-09-22T12:20:30.250Z,100128.41
2022-09-22T12:23:36.369Z,100128.16
2022-09-22T12:26:08.073Z,100131.50
2022-09-22T12:28:40.301Z,100120.50
2022-09-22T12:31:12.975Z,100115.38
2022-09-22T12:33:51.099Z,100120.34
2022-09-22T12:36:28.820Z,100112.88
2022-09-22T12:39:08.839Z,100110.53
2022-09-22T12:41:48.306Z,100109.97
2022-09-22T12:44:23.847Z,100102.56
2022-09-22T12:46:53.878Z,100104.31
2022-09-22T12:49:24.205Z,100099.47
2022-09-22T12:51:53.005Z,100107.22
2022-09-22T12:54:38.677Z,100099.00
2022-09-22T12:57:28.641Z,100094.25
2022-09-22T13:00:12.313Z,100096.22
2022-09-22T13:02:45.996Z,100103.00
2022-09-22T13:05:34.961Z,100086.25
2022-09-22T13:08:03.316Z,100089.72
2022-09-22T13:10:52.332Z,100086.47
2022-09-22T13:13:36.901Z,100083.25
2022-09-22T13:16:21.313Z,100075.81
2022-09-22T13:18:59.877Z,100075.13
2022-09-22T13:21:30.474Z,100067.59
2022-09-22T13:24:00.080Z,100068.53
2022-09-22T13:26:30.244Z,100052.66
2022-09-22T13:29:07.883Z,100069.69
2022-09-22T13:31:43.978Z,100057.06
2022-09-22T13:34:25.331Z,100057.84
2022-09-22T13:36:57.678Z,100046.69
2022-09-22T13:39:28.228Z,100051.06
2022-09-22T13:42:00.216Z,100043.28
2022-09-22T13:44:31.853Z,100048.53
2022-09-22T13:47:03.075Z,100044.41
2022-09-22T13:49:35.644Z,100051.22
2022-09-22T13:52:08.493Z,100038.66
2022-09-22T13:54:38.537Z,100041.28
2022-09-22T13:57:08.938Z,100035.41
2022-09-22T13:59:42.187Z,100036.34
2022-09-22T14:02:12.419Z,100036.38
2022-09-22T14:04:50.734Z,100030.47
2022-09-22T14:07:22.186Z,100032.28
2022-09-22T14:09:50.890Z,100036.53
2022-09-22T14:12:19.016Z,100052.63
2022-09-22T14:14:46.953Z,100042.50
2022-09-22T14:17:19.249Z,100028.16
2022-09-22T14:19:55.795Z,100035.75
2022-09-22T14:22:27.082Z,100039.13
2022-09-22T14:24:57.162Z,100038.28
2022-09-22T14:27:31.453Z,100037.41
2022-09-22T14:30:00.104Z,100035.69
2022-09-22T14:32:34.999Z,100023.03
2022-09-22T14:35:06.808Z,100027.28
2022-09-22T14:37:39.254Z,100023.09
2022-09-22T14:40:16.008Z,100018.88
2022-09-22T14:42:55.713Z,100031.56
2022-09-22T14:45:24.550Z,100036.63
2022-09-22T14:48:10.951Z,100025.63
2022-09-22T14:50:42.401Z,100026.50
2022-09-22T14:53:22.049Z,100029.00
2022-09-22T14:55:52.843Z,100023.97
2022-09-22T14:58:24.839Z,100029.03
2022-09-22T15:01:12.999Z,100015.53
2022-09-22T15:03:42.796Z,100020.59
2022-09-22T15:06:13.707Z,100014.69
2022-09-22T15:08:44.746Z,100019.75
2022-09-22T15:11:13.005Z,100014.69
2022-09-22T15:13:41.941Z,100021.41
2022-09-22T15:16:43.356Z,100015.53
2022-09-22T15:19:13.115Z,100018.06
2022-09-22T15:21:46.911Z,100022.25
2022-09-22T15:24:21.148Z,100018.06
2022-09-22T15:26:49.025Z,100016.38
2022-09-22T15:29:17.372Z,100017.22
2022-09-22T15:31:45.299Z,100023.97
2022-09-22T15:34:16.726Z,100016.34
2022-09-22T15:36:48.780Z,100012.97
2022-09-22T15:39:21.746Z,100016.34
2022-09-22T15:41:50.378Z,100021.41
2022-09-22T15:44:18.369Z,100002.84
2022-09-22T15:46:50.276Z,100009.59
2022-09-22T15:49:22.371Z,100011.25
2022-09-22T15:51:50.639Z,100014.56
2022-09-22T15:54:21.947Z,100024.66
2022-09-22T15:56:52.212Z,100018.69
2022-09-22T15:59:22.265Z,100027.94
2022-09-22T16:01:51.743Z,100031.25
2022-09-22T16:04:19.639Z,100028.69
2022-09-22T16:06:54.252Z,100028.59
2022-09-22T16:09:23.651Z,100037.03
2022-09-22T16:11:51.527Z,100031.91
2022-09-22T16:14:19.810Z,100027.56
2022-09-22T16:16:47.597Z,100034.97
2022-09-22T16:19:16.092Z,100036.34
2022-09-22T16:21:50.472Z,100039.41
2022-09-22T16:24:18.920Z,100045.88
2022-09-22T16:26:48.098Z,100048.88
2022-09-22T16:29:16.021Z,100055.38
2022-09-22T16:31:44.049Z,100058.50
2022-09-22T16:34:12.427Z,100050.78
2022-09-22T16:36:41.702Z,100064.88
2022-09-22T16:39:09.718Z,100057.84
2022-09-22T16:41:38.148Z,100056.88
2022-09-22T16:44:07.328Z,100060.03
2022-09-22T16:46:37.732Z,100062.41
2022-09-22T16:49:07.358Z,100065.56
2022-09-22T16:51:38.159Z,100059.53
2022-09-22T16:54:07.437Z,100035.63
2022-09-22T16:56:38.170Z,100067.59
2022-09-22T16:59:08.064Z,100068.34
2022-09-22T17:01:37.826Z,100064.84
2022-09-22T17:04:07.061Z,100079.78
2022-09-22T17:06:37.634Z,100084.66
2022-09-22T17:09:06.675Z,100082.88
2022-09-22T17:11:36.615Z,100086.06
2022-09-22T17:14:12.230Z,100083.44
2022-09-22T17:16:42.402Z,100085.78
2022-09-22T17:19:11.982Z,100078.03
2022-09-22T17:21:41.021Z,100076.91
2022-09-22T17:24:09.855Z,100077.72
2022-09-22T17:26:41.175Z,100078.53
2022-09-22T17:29:10.891Z,100083.50
2022-09-22T17:31:39.925Z,100078.41
2022-09-22T17:34:07.875Z,100087.56
2022-09-22T17:36:35.782Z,100093.41
2022-09-22T17:39:03.769Z,100105.06
2022-09-22T17:41:33.557Z,100101.66
2022-09-22T17:44:03.167Z,100105.00
2022-09-22T17:46:34.378Z,100111.66
2022-09-22T17:49:20.385Z,100113.34
2022-09-22T17:52:06.696Z,100115.03
2022-09-22T17:54:53.258Z,100116.69
2022-09-22T17:57:23.017Z,100106.19
2022-09-22T17:59:51.849Z,100106.72
2022-09-22T18:02:21.989Z,100122.53
2022-09-22T18:04:50.127Z,100129.06
2022-09-22T18:07:19.948Z,100134.69
2022-09-22T18:09:49.583Z,100132.84
2022-09-22T18:12:20.327Z,100139.44
2022-09-22T18:14:50.153Z,100143.38
2022-09-22T18:17:20.065Z,100146.56
2022-09-22T18:19:49.385Z,100142.94
2022-09-22T18:22:20.900Z,100145.22
2022-09-22T18:24:50.381Z,100150.91
2022-09-22T18:27:20.654Z,100153.59
2022-09-22T18:29:49.955Z,100155.47
2022-09-22T18:32:19.669Z,100159.72
2022-09-22T18:34:51.158Z,100162.31
2022-09-22T18:37:20.388Z,100159.13
2022-09-22T18:39:50.223Z,100165.06
2022-09-22T18:42:19.063Z,100168.47
2022-09-22T18:44:47.651Z,100173.34
2022-09-22T18:47:18.465Z,100170.63
2022-09-22T18:49:48.161Z,100166.94
2022-09-22T18:52:21.549Z,100171.66
2022-09-22T18:54:52.983Z,100163.91
2022-09-22T18:57:21.722Z,100178.00
2022-09-22T18:59:50.920Z,100175.97
2022-09-22T19:02:22.446Z,100181.94
2022-09-22T19:04:51.234Z,100174.53
2022-09-22T19:07:42.476Z,100172.22
2022-09-22T19:10:13.438Z,100168.81
2022-09-22T19:12:42.406Z,100175.44
2022-09-22T19:15:13.811Z,100170.94
2022-09-22T19:17:44.255Z,100170.66
2022-09-22T19:20:14.514Z,100175.28
2022-09-22T19:22:43.968Z,100166.59
2022-09-22T19:25:12.408Z,100178.97
2022-09-22T19:27:40.760Z,100161.94
2022-09-22T19:30:09.708Z,100171.00
2022-09-22T19:32:38.156Z,100163.16
2022-09-22T19:35:06.964Z,100170.47
2022-09-22T19:37:34.837Z,100164.44
2022-09-22T19:40:05.283Z,100169.28
2022-09-22T19:42:37.984Z,100181.78
2022-09-22T19:45:08.301Z,100176.00
2022-09-22T19:47:36.072Z,100184.53
2022-09-22T19:50:05.172Z,100172.38
2022-09-22T19:52:34.871Z,100175.16
2022-09-22T19:55:04.363Z,100175.34
2022-09-22T19:57:32.885Z,100171.28
2022-09-22T20:00:00.745Z,100176.34
2022-09-22T20:02:28.555Z,100177.09
2022-09-22T20:04:57.067Z,100173.66
2022-09-22T20:07:27.692Z,100176.97
2022-09-22T20:09:56.448Z,100183.78
2022-09-22T20:12:25.588Z,100180.47
2022-09-22T20:14:54.508Z,100187.97
2022-09-22T20:17:23.110Z,100183.88
2022-09-22T20:19:50.937Z,100188.09
2022-09-22T20:22:22.855Z,100180.38
2022-09-22T20:24:54.006Z,100188.78
2022-09-22T20:27:25.909Z,100183.78
2022-09-22T20:29:57.325Z,100183.88
2022-09-22T20:32:26.377Z,100182.16
2022-09-22T20:34:55.335Z,100180.25
2022-09-22T20:37:23.556Z,100181.75
2022-09-22T20:39:51.445Z,100184.88
2022-09-22T20:42:19.312Z,100181.00
2022-09-22T20:44:49.002Z,100187.09
2022-09-22T20:47:18.125Z,100185.19
2022-09-22T20:49:51.344Z,100189.38
2022-09-22T20:52:21.018Z,100184.78
2022-09-22T20:54:49.739Z,100168.72
2022-09-22T20:57:18.248Z,100188.25
2022-09-22T20:59:47.111Z,100183.47
2022-09-22T21:02:18.538Z,100188.06
2022-09-22T21:04:46.361Z,100183.00
2022-09-22T21:07:14.166Z,100180.75
2022-09-22T21:09:59.543Z,100178.56
2022-09-22T21:12:31.347Z,100177.16
2022-09-22T21:14:59.751Z,100175.56
2022-09-22T21:17:29.617Z,100171.28
2022-09-22T21:19:58.093Z,100167.03
2022-09-22T21:22:27.982Z,100179.03
2022-09-22T21:24:56.156Z,100175.56
2022-09-22T21:27:24.669Z,100181.28
2022-09-22T21:29:53.121Z,100174.59
2022-09-22T21:32:21.036Z,100168.63
2022-09-22T21:34:50.290Z,100180.47
2022-09-22T21:37:18.143Z,100167.94
2022-09-22T21:39:46.352Z,100169.59
2022-09-22T21:42:14.148Z,100170.38
2022-09-22T21:44:42.050Z,100167.03
2022-09-22T21:47:11.412Z,100167.88
2022-09-22T21:49:39.422Z,100166.97
2022-09-22T21:52:08.607Z,100165.25
2022-09-22T21:54:36.418Z,100167.75
2022-09-22T21:57:04.229Z,100166.00
2022-09-22T21:59:32.073Z,100169.88
2022-09-22T22:02:00.534Z,100161.06
2022-09-22T22:04:28.414Z,100172.72
2022-09-22T22:06:56.496Z,100174.31
2022-09-22T22:09:25.936Z,100174.31
2022-09-22T22:11:56.372Z,100177.44
2022-09-22T22:14:27.195Z,100174.13
2022-09-22T22:16:56.201Z,100170.91
2022-09-22T22:19:26.848Z,100169.31
2022-09-22T22:21:55.730Z,100162.63
2022-09-22T22:24:33.722Z,100154.13
2022-09-22T22:27:05.667Z,100158.63
2022-09-22T22:29:35.260Z,100152.72
2022-09-22T22:32:04.083Z,100157.59
2022-09-22T22:34:31.969Z,100156.69
2022-09-22T22:37:00.445Z,100145.38
2022-09-22T22:39:30.085Z,100157.88
2022-09-22T22:41:58.101Z,100151.91
2022-09-22T22:44:26.077Z,100155.19
2022-09-22T22:46:54.063Z,100155.06
2022-09-22T22:49:22.118Z,100142.13
2022-09-22T22:51:52.056Z,100141.78
2022-09-22T22:54:20.059Z,100139.91
2022-09-22T22:56:51.509Z,100142.22
2022-09-22T22:59:19.920Z,100138.84
2022-09-22T23:01:47.859Z,100138.94
2022-09-22T23:04:16.628Z,100132.47
2022-09-22T23:06:44.982Z,100129.28
2022-09-22T23:09:15.114Z,100126.56
2022-09-22T23:11:45.576Z,100140.13
2022-09-22T23:14:16.207Z,100135.53
2022-09-22T23:16:46.279Z,100137.94
2022-09-22T23:19:16.063Z,100138.69
2022-09-22T23:21:44.963Z,100135.06
2022-09-22T23:24:15.593Z,100126.22
2022-09-22T23:26:43.811Z,100129.97
2022-09-22T23:29:11.695Z,100124.47
2022-09-22T23:31:41.035Z,100120.56
2022-09-22T23:34:09.106Z,100114.66
2022-09-22T23:36:37.188Z,100125.72
2022-09-22T23:39:05.348Z,100124.06
2022-09-22T23:41:34.861Z,100121.34
2022-09-22T23:44:03.427Z,100111.25
2022-09-22T23:46:31.789Z,100117.81
2022-09-22T23:49:01.241Z,100118.44
2022-09-22T23:51:29.143Z,100113.97
2022-09-22T23:53:57.579Z,100117.88
2022-09-22T23:56:25.930Z,100120.19
2022-09-22T23:58:53.896Z,100114.84
